Time;durP1;ratioP1;P1;durP2;ratioP2;P2;SDS_P1;SDS_P2;PMS_P1;PMS_P2;Temp;Humidity;BMP_temperature;BMP_pressure;BME280_temperature;BME280_humidity;BME280_pressure;Samples;Min_cycle;Max_cycle;Signal;HPM_P1;HPM_P2
2022/12/22 03:26:44;;;;;;;77.77;29.90;;;;;;;0.22;89.79;99864.78;4976983;28;20414;-66
2022/12/22 03:29:10;;;;;;;73.90;31.53;;;;;;;0.22;90.42;99864.78;4980399;28;20437;-66
2022/12/22 03:31:37;;;;;;;63.00;34.17;;;;;;;0.22;90.13;99859.56;4996575;28;20445;-66
2022/12/22 03:34:05;;;;;;;74.63;33.93;;;;;;;0.15;89.85;99862.81;4995856;28;20449;-67
2022/12/22 03:36:32;;;;;;;62.87;34.63;;;;;;;0.00;90.03;99852.59;4996146;28;20539;-66
2022/12/22 03:38:58;;;;;;;69.13;34.57;;;;;;;-0.09;90.51;99855.94;4995739;28;20468;-66
2022/12/22 03:46:53;;;;;;;59.57;32.67;;;;;;;-0.40;91.82;99858.44;4995913;28;20409;-66
2022/12/22 03:49:21;;;;;;;64.10;36.17;;;;;;;-0.42;92.37;99868.16;4995907;28;20445;-66
2022/12/22 03:51:50;;;;;;;60.47;33.07;;;;;;;-0.43;92.63;99862.13;4996741;28;20461;-67
2022/12/22 03:54:19;;;;;;;53.67;31.50;;;;;;;-0.50;92.23;99860.09;4995851;28;20446;-67
2022/12/22 03:56:46;;;;;;;57.83;31.00;;;;;;;-0.52;92.90;99852.38;4995437;28;20997;-66
2022/12/22 03:59:13;;;;;;;54.80;30.27;;;;;;;-0.66;93.01;99825.69;4995399;28;20473;-67
2022/12/22 04:01:42;;;;;;;62.13;32.23;;;;;;;-0.55;92.47;99850.03;4995756;28;20504;-66
2022/12/22 04:04:09;;;;;;;63.00;31.57;;;;;;;-0.55;92.74;99846.56;4995321;28;20957;-67
2022/12/22 04:06:37;;;;;;;75.03;35.43;;;;;;;-0.54;92.50;99845.63;4996240;28;20445;-66
2022/12/22 04:09:04;;;;;;;62.53;34.93;;;;;;;-0.60;92.97;99846.09;4995441;28;20437;-67
2022/12/22 04:14:20;;;;;;;49.10;30.67;;;;;;;-0.43;93.70;99841.25;4957326;28;20440;-66
2022/12/22 04:16:47;;;;;;;51.33;31.03;;;;;;;-0.42;92.63;99836.84;4995198;28;20527;-67
2022/12/22 04:19:14;;;;;;;56.07;31.07;;;;;;;-0.36;91.74;99839.00;4995798;28;20508;-67
2022/12/22 04:21:43;;;;;;;66.63;30.07;;;;;;;-0.35;91.30;99841.50;4995570;28;20476;-66
2022/12/22 04:24:11;;;;;;;54.67;31.07;;;;;;;-0.25;90.71;99845.03;4994773;28;20441;-66
2022/12/22 04:26:38;;;;;;;58.30;31.13;;;;;;;-0.18;90.92;99846.22;4994988;28;20449;-67
2022/12/22 04:29:05;;;;;;;58.87;32.17;;;;;;;-0.12;90.93;99842.31;4995119;28;20438;-67
2022/12/22 04:31:32;;;;;;;58.83;30.83;;;;;;;-0.07;90.54;99845.38;4994928;28;20468;-67
2022/12/22 04:33:58;;;;;;;51.80;31.53;;;;;;;-0.03;90.20;99847.63;4994865;28;20946;-67
2022/12/22 04:36:25;;;;;;;53.93;31.47;;;;;;;-0.05;89.59;99854.75;4994958;28;20481;-67
2022/12/22 04:38:53;;;;;;;53.13;31.07;;;;;;;0.03;89.68;99859.34;4995034;28;20441;-67
2022/12/22 04:41:20;;;;;;;65.40;31.30;;;;;;;0.07;89.58;99858.16;4994638;28;20942;-67
2022/12/22 04:43:46;;;;;;;49.70;29.43;;;;;;;0.10;89.62;99850.09;4995124;28;20438;-67
2022/12/22 04:46:13;;;;;;;55.43;30.33;;;;;;;0.13;90.16;99855.91;4994687;28;20442;-67
2022/12/22 04:48:40;;;;;;;50.13;29.53;;;;;;;0.17;89.36;99846.06;4994312;28;20442;-67
2022/12/22 04:51:06;;;;;;;51.27;28.67;;;;;;;0.20;88.88;99851.00;4994616;28;20438;-67
2022/12/22 04:53:34;;;;;;;48.27;29.70;;;;;;;0.22;89.33;99856.97;4994304;28;20477;-67
2022/12/22 04:56:04;;;;;;;56.67;30.73;;;;;;;0.26;89.15;99855.75;4993994;28;20989;-67
2022/12/22 04:58:32;;;;;;;56.73;31.63;;;;;;;0.26;88.48;99850.53;4995041;28;20515;-67
2022/12/22 05:01:09;;;;;;;63.00;33.43;;;;;;;0.28;88.53;99851.22;4994403;28;20881;-67
2022/12/22 05:03:35;;;;;;;54.00;31.77;;;;;;;0.28;88.29;99853.03;4994432;28;20433;-67
2022/12/22 05:06:02;;;;;;;46.67;29.90;;;;;;;0.31;88.36;99856.22;4994144;28;20450;-68
2022/12/22 05:08:29;;;;;;;50.90;29.80;;;;;;;0.31;88.21;99853.59;4994255;28;20445;-67
2022/12/22 05:10:55;;;;;;;62.17;29.83;;;;;;;0.32;88.50;99860.47;4993780;28;20942;-68
2022/12/22 05:13:23;;;;;;;58.23;30.63;;;;;;;0.33;88.13;99845.66;4993983;28;20946;-68
2022/12/22 05:15:50;;;;;;;61.30;31.97;;;;;;;0.30;87.50;99845.88;4993893;28;20481;-68
2022/12/22 05:18:17;;;;;;;70.80;37.63;;;;;;;0.34;88.14;99852.53;4993847;28;20508;-67
2022/12/22 05:20:43;;;;;;;64.47;39.90;;;;;;;0.33;87.72;99851.72;4993939;28;21063;-68
2022/12/22 05:23:10;;;;;;;86.43;38.13;;;;;;;0.34;87.49;99847.31;4994013;28;20861;-68
2022/12/22 05:25:37;;;;;;;66.17;35.40;;;;;;;0.32;87.65;99852.66;4994080;28;20570;-69
2022/12/22 05:28:04;;;;;;;66.20;36.13;;;;;;;0.17;87.47;99829.53;4994081;28;20441;-67
2022/12/22 05:30:32;;;;;;;64.63;32.93;;;;;;;0.32;87.56;99860.47;4993943;28;20443;-68
2022/12/22 05:32:58;;;;;;;53.23;30.80;;;;;;;0.34;88.20;99857.75;4994001;28;20937;-68
2022/12/22 05:35:25;;;;;;;52.57;31.20;;;;;;;0.31;87.94;99858.00;4993974;28;20496;-68
2022/12/22 05:37:52;;;;;;;57.77;30.87;;;;;;;0.30;88.10;99854.56;4993629;28;20499;-67
2022/12/22 05:40:19;;;;;;;77.40;41.83;;;;;;;0.23;88.05;99866.44;4993454;28;21019;-67
2022/12/22 05:42:45;;;;;;;266.20;103.37;;;;;;;0.18;87.67;99863.38;4993578;28;21031;-67
2022/12/22 05:45:14;;;;;;;289.60;116.03;;;;;;;0.13;87.66;99854.25;4993372;28;20869;-67
2022/12/22 05:47:43;;;;;;;139.67;64.57;;;;;;;0.03;87.81;99854.13;4993367;28;20440;-67
2022/12/22 05:50:11;;;;;;;87.07;42.90;;;;;;;-0.14;88.30;99852.03;4993562;28;20489;-67
2022/12/22 05:52:38;;;;;;;119.60;51.43;;;;;;;-0.32;88.64;99845.63;4993333;28;20870;-67
2022/12/22 05:55:06;;;;;;;97.57;45.20;;;;;;;-0.39;89.65;99857.50;4993152;28;20442;-67
2022/12/22 05:57:33;;;;;;;91.37;38.57;;;;;;;-0.42;90.11;99857.72;4993377;28;20481;-67
2022/12/22 06:00:00;;;;;;;76.37;38.10;;;;;;;-0.50;90.92;99849.66;4993059;28;20442;-67
2022/12/22 06:02:27;;;;;;;64.67;34.37;;;;;;;-0.52;91.40;99852.38;4993350;28;20442;-67
2022/12/22 06:04:55;;;;;;;130.33;49.00;;;;;;;-0.50;91.10;99854.88;4993400;28;20445;-67
2022/12/22 06:07:21;;;;;;;96.53;49.13;;;;;;;-0.55;91.55;99844.81;4993334;28;20446;-67
2022/12/22 06:09:48;;;;;;;130.37;51.23;;;;;;;-0.43;92.00;99843.03;4993453;28;20449;-68
2022/12/22 06:12:15;;;;;;;107.87;49.47;;;;;;;-0.32;91.49;99854.28;4992760;28;20445;-69
2022/12/22 06:14:42;;;;;;;129.07;60.33;;;;;;;-0.23;90.88;99847.53;4993409;28;20516;-69
2022/12/22 06:17:08;;;;;;;179.07;70.43;;;;;;;-0.13;90.70;99854.53;4992160;28;20567;-68
2022/12/22 06:19:35;;;;;;;152.20;59.23;;;;;;;-0.02;90.81;99851.06;4992025;28;20503;-70
2022/12/22 06:22:03;;;;;;;128.40;55.23;;;;;;;0.12;90.63;99849.97;4992439;28;20779;-70
2022/12/22 06:24:30;;;;;;;172.63;55.57;;;;;;;0.22;90.29;99859.56;4992786;28;20437;-69
2022/12/22 06:26:56;;;;;;;148.50;54.27;;;;;;;0.39;89.76;99859.06;4992965;28;20525;-69
2022/12/22 06:29:23;;;;;;;136.37;56.70;;;;;;;0.58;89.72;99856.63;4992227;28;20481;-68
2022/12/22 06:31:50;;;;;;;116.90;49.93;;;;;;;0.90;91.62;99861.84;4993025;28;20528;-71
2022/12/22 06:34:17;;;;;;;139.67;50.73;;;;;;;1.14;90.26;99855.38;4992681;28;20451;-68
2022/12/22 06:36:44;;;;;;;92.10;46.87;;;;;;;1.38;87.58;99863.81;4991712;28;20564;-67
2022/12/22 06:39:12;;;;;;;91.00;46.70;;;;;;;1.65;86.46;99865.88;4992613;28;20442;-67
2022/12/22 06:44:23;;;;;;;100.80;44.80;;;;;;;2.18;83.62;99877.78;4993000;28;20405;-68
2022/12/22 06:46:50;;;;;;;90.70;47.27;;;;;;;2.51;83.26;99878.28;4992481;28;20450;-67
2022/12/22 06:49:17;;;;;;;101.30;52.00;;;;;;;2.77;82.17;99889.91;4993155;28;20496;-69
2022/12/22 06:51:43;;;;;;;120.27;52.17;;;;;;;3.03;80.42;99893.63;4992741;28;20500;-67
2022/12/22 06:54:11;;;;;;;90.17;44.57;;;;;;;3.30;79.80;99893.75;4992423;28;20989;-69
2022/12/22 06:56:38;;;;;;;78.40;38.93;;;;;;;3.55;77.02;99898.41;4988983;28;20477;-66
2022/12/22 06:59:05;;;;;;;72.27;36.73;;;;;;;3.78;77.44;99889.22;4990212;28;20469;-66
2022/12/22 07:01:32;;;;;;;61.07;36.07;;;;;;;4.09;76.53;99893.22;4991450;28;21015;-67
2022/12/22 07:03:58;;;;;;;69.33;36.43;;;;;;;4.40;74.24;99899.84;4992274;28;20995;-67
2022/12/22 07:06:25;;;;;;;47.87;27.70;;;;;;;4.57;72.66;99893.78;4992348;28;20446;-68
2022/12/22 07:08:52;;;;;;;43.77;26.07;;;;;;;4.70;73.44;99894.25;4992348;28;20504;-65
2022/12/22 07:11:20;;;;;;;36.20;23.53;;;;;;;4.68;73.26;99896.22;4992592;28;20195;-64
2022/12/22 07:13:47;;;;;;;47.87;25.23;;;;;;;4.82;73.08;99893.06;4992097;28;20206;-65
2022/12/22 07:16:14;;;;;;;31.73;20.47;;;;;;;4.76;71.83;99898.09;4992702;28;20555;-65
2022/12/22 07:18:42;;;;;;;33.97;20.70;;;;;;;4.62;72.00;99891.53;4992580;28;20198;-67
2022/12/22 07:21:12;;;;;;;30.77;17.93;;;;;;;4.97;81.02;99870.50;4992407;28;20861;-68
2022/12/22 07:23:40;;;;;;;39.27;21.90;;;;;;;5.59;84.38;99865.06;4992738;28;20198;-67
2022/12/22 07:26:07;;;;;;;69.20;27.87;;;;;;;6.18;71.06;99901.16;4992492;28;20301;-65
2022/12/22 07:28:37;;;;;;;43.73;26.93;;;;;;;6.46;68.09;99904.41;4992781;28;20190;-67
2022/12/22 07:31:05;;;;;;;44.80;25.40;;;;;;;6.42;66.72;99905.69;4990413;28;20593;-67
2022/12/22 07:33:33;;;;;;;70.00;25.53;;;;;;;6.55;64.82;99919.25;4991894;28;20194;-66
2022/12/22 07:36:05;;;;;;;44.90;24.63;;;;;;;6.65;65.63;99910.22;4991654;28;20233;-68
2022/12/22 07:38:34;;;;;;;44.53;26.77;;;;;;;6.78;64.67;99891.28;4992185;28;20266;-67
2022/12/22 07:41:01;;;;;;;45.40;25.57;;;;;;;7.11;62.52;99916.75;4992312;28;20192;-66
2022/12/22 07:43:27;;;;;;;46.37;25.30;;;;;;;7.23;63.19;99908.34;4991884;28;20198;-66
2022/12/22 07:45:55;;;;;;;33.87;24.10;;;;;;;7.47;62.98;99908.34;4991833;28;20195;-67
2022/12/22 07:51:06;;;;;;;48.63;29.27;;;;;;;7.50;61.02;99912.44;4995769;28;20277;-68
2022/12/22 07:53:34;;;;;;;48.63;28.53;;;;;;;7.35;62.38;99893.00;4995840;28;20614;-68
2022/12/22 07:56:05;;;;;;;49.53;28.13;;;;;;;7.65;61.99;99894.94;4995670;28;20714;-68
2022/12/22 07:58:32;;;;;;;51.20;27.47;;;;;;;7.91;60.29;99906.13;4995884;28;20279;-68
2022/12/22 08:01:01;;;;;;;38.17;21.33;;;;;;;8.07;58.89;99896.34;4996568;28;20192;-68
2022/12/22 08:03:28;;;;;;;36.87;22.50;;;;;;;8.11;59.49;99894.16;4995360;28;20620;-69
2022/12/22 08:05:55;;;;;;;49.60;23.97;;;;;;;8.36;58.04;99895.75;4995386;28;20272;-70
2022/12/22 08:08:21;;;;;;;37.50;21.03;;;;;;;8.52;57.14;99893.03;4995807;28;20191;-68
2022/12/22 08:10:48;;;;;;;30.73;20.37;;;;;;;8.75;59.42;99891.25;4994986;28;20246;-64
2022/12/22 08:13:15;;;;;;;37.13;23.67;;;;;;;8.85;59.03;99878.59;4994851;28;20531;-68
2022/12/22 08:15:41;;;;;;;41.23;22.23;;;;;;;8.94;57.65;99890.81;4995104;28;20211;-68
2022/12/22 08:18:09;;;;;;;44.60;22.33;;;;;;;9.15;56.95;99896.28;4995317;28;20301;-68
2022/12/22 08:20:36;;;;;;;40.83;24.47;;;;;;;9.33;55.64;99896.81;4995207;28;20222;-69
2022/12/22 08:23:03;;;;;;;47.67;23.77;;;;;;;9.52;55.08;99896.31;4995638;28;20276;-69
2022/12/22 08:25:31;;;;;;;39.23;23.90;;;;;;;9.56;52.48;99900.25;4995495;28;20252;-68
2022/12/22 08:27:59;;;;;;;38.50;23.33;;;;;;;9.59;53.74;99889.28;4995602;28;20194;-68
2022/12/22 08:30:26;;;;;;;55.73;24.03;;;;;;;9.56;53.53;99889.66;4995133;28;20198;-68
2022/12/22 08:32:52;;;;;;;39.90;24.33;;;;;;;9.52;52.74;99891.81;4995192;28;20191;-68
2022/12/22 08:35:20;;;;;;;43.70;23.83;;;;;;;9.55;55.42;99883.50;4995678;28;20257;-68
2022/12/22 08:37:48;;;;;;;90.93;27.60;;;;;;;9.73;53.92;99883.19;4994864;28;20218;-68
2022/12/22 08:40:20;;;;;;;55.43;26.50;;;;;;;9.90;53.76;99879.34;4995046;28;20202;-68
2022/12/22 08:42:48;;;;;;;47.60;26.53;;;;;;;9.95;52.55;99877.81;4995838;28;20191;-69
2022/12/22 08:45:15;;;;;;;93.70;30.90;;;;;;;10.08;51.94;99877.19;4994651;28;20230;-69
2022/12/22 08:47:41;;;;;;;44.50;27.47;;;;;;;10.06;52.34;99874.72;4995264;28;20589;-69
2022/12/22 08:50:09;;;;;;;61.03;27.20;;;;;;;10.03;51.51;99867.09;4994866;28;20256;-70
2022/12/22 08:52:38;;;;;;;49.67;26.40;;;;;;;10.15;51.32;99859.53;4994446;28;20190;-68
2022/12/22 08:55:05;;;;;;;45.90;24.90;;;;;;;10.23;50.13;99859.44;4994780;28;20261;-68
2022/12/22 08:57:32;;;;;;;37.13;22.93;;;;;;;10.39;49.68;99849.44;4994543;28;20639;-70
2022/12/22 08:59:58;;;;;;;37.90;23.83;;;;;;;10.56;49.59;99842.06;4992890;28;20191;-68
2022/12/22 09:02:25;;;;;;;46.30;23.80;;;;;;;10.71;48.93;99842.84;4994450;28;20272;-68
2022/12/22 09:04:52;;;;;;;43.60;25.97;;;;;;;10.79;48.18;99835.56;4993205;28;20263;-68
2022/12/22 09:07:18;;;;;;;53.63;25.90;;;;;;;10.64;49.48;99841.94;4995298;28;20696;-69
2022/12/22 09:09:47;;;;;;;69.87;34.70;;;;;;;10.69;48.84;99836.88;4994470;28;20274;-67
2022/12/22 09:12:13;;;;;;;54.67;33.00;;;;;;;10.77;48.57;99832.28;4994054;28;20202;-68
2022/12/22 09:14:40;;;;;;;48.30;26.57;;;;;;;10.82;48.50;99829.03;4993721;28;20194;-68
2022/12/22 09:17:07;;;;;;;35.37;23.93;;;;;;;10.76;47.93;99832.47;4993436;28;20226;-68
2022/12/22 09:19:34;;;;;;;36.90;22.03;;;;;;;10.82;48.04;99829.03;4993288;28;20207;-66
2022/12/22 09:22:00;;;;;;;35.80;22.53;;;;;;;10.96;47.96;99821.00;4993344;28;20257;-68
2022/12/22 09:24:27;;;;;;;36.57;21.83;;;;;;;11.10;47.79;99821.16;4993967;28;20206;-69
2022/12/22 09:26:55;;;;;;;33.30;23.07;;;;;;;11.07;48.54;99817.84;4993868;28;20203;-70
2022/12/22 09:29:22;;;;;;;37.07;22.77;;;;;;;10.99;47.99;99806.53;4993569;28;20191;-68
2022/12/22 09:31:48;;;;;;;34.13;22.60;;;;;;;11.00;47.82;99816.16;4993617;28;20260;-68
2022/12/22 09:34:15;;;;;;;32.17;22.07;;;;;;;11.07;47.70;99811.72;4994109;28;20285;-68
2022/12/22 09:36:42;;;;;;;36.50;23.37;;;;;;;10.96;48.62;99798.94;4993867;28;20281;-68
2022/12/22 09:39:09;;;;;;;202.40;28.23;;;;;;;10.85;48.68;99807.41;4994184;28;20277;-69
2022/12/22 09:41:41;;;;;;;51.83;22.50;;;;;;;10.57;50.39;99809.16;4993867;28;20261;-69
2022/12/22 09:44:16;;;;;;;48.13;21.83;;;;;;;10.71;50.43;99800.34;4993489;28;20186;-68
2022/12/22 09:46:43;;;;;;;44.87;24.33;;;;;;;10.82;49.11;99800.66;4993242;28;20646;-69
2022/12/22 09:49:14;;;;;;;31.20;18.73;;;;;;;10.83;49.11;99798.81;4993448;28;20262;-67
2022/12/22 09:51:44;;;;;;;33.07;19.83;;;;;;;10.96;48.92;99799.75;4993416;28;20719;-67
2022/12/22 09:54:12;;;;;;;35.30;20.13;;;;;;;11.04;47.63;99785.53;4993620;28;20253;-67
2022/12/22 09:56:39;;;;;;;35.90;20.30;;;;;;;11.11;47.97;99786.38;4993248;28;20211;-68
2022/12/22 09:59:10;;;;;;;34.13;20.43;;;;;;;11.13;47.94;99779.03;4993290;28;20257;-68
2022/12/22 10:01:52;;;;;;;29.03;20.20;;;;;;;11.26;47.67;99773.81;4992862;28;20202;-72
2022/12/22 10:04:32;;;;;;;99.33;22.20;;;;;;;11.30;46.81;99774.28;4987943;28;20191;-69
2022/12/22 10:07:08;;;;;;;30.57;20.67;;;;;;;11.34;46.58;99772.84;4991880;28;20619;-71
2022/12/22 10:09:36;;;;;;;32.93;21.40;;;;;;;11.39;47.21;99773.91;4993496;28;20188;-71
2022/12/22 10:12:05;;;;;;;37.33;22.47;;;;;;;11.55;46.96;99768.28;4992687;28;20191;-74
2022/12/22 10:14:34;;;;;;;34.93;23.23;;;;;;;11.68;46.66;99756.94;4993157;28;20195;-71
2022/12/22 10:17:22;;;;;;;46.60;21.93;;;;;;;11.70;46.63;99755.72;4992795;28;20642;-72
2022/12/22 10:19:51;;;;;;;37.60;22.23;;;;;;;11.85;46.66;99753.78;4992592;28;20184;-73
2022/12/22 10:22:30;;;;;;;35.50;22.20;;;;;;;11.66;45.58;99743.00;4993611;28;20250;-72
2022/12/22 10:25:00;;;;;;;43.83;23.07;;;;;;;11.49;46.21;99734.50;4992842;28;20659;-70
2022/12/22 10:27:30;;;;;;;40.70;22.10;;;;;;;11.35;46.68;99729.31;4993314;28;20247;-72
2022/12/22 10:30:18;;;;;;;42.77;20.03;;;;;;;11.30;45.93;99742.38;4992841;28;20340;-68
2022/12/22 10:33:02;;;;;;;58.27;21.30;;;;;;;11.31;46.79;99738.69;4992424;28;20738;-70
2022/12/22 10:35:42;;;;;;;35.27;19.63;;;;;;;11.35;46.46;99724.78;4990962;28;20196;-68
2022/12/22 10:38:31;;;;;;;35.27;19.80;;;;;;;11.51;46.27;99729.00;4990349;28;20265;-67
2022/12/22 10:41:02;;;;;;;47.77;21.67;;;;;;;11.55;46.01;99722.25;4988707;28;20195;-69
2022/12/22 10:43:31;;;;;;;46.13;22.53;;;;;;;11.48;46.17;99719.56;4990806;28;20192;-70
2022/12/22 10:45:58;;;;;;;35.27;22.80;;;;;;;11.54;46.82;99716.09;4990764;28;20255;-69
2022/12/22 10:48:28;;;;;;;36.00;21.50;;;;;;;11.59;46.59;99704.88;4990220;28;20204;-71
2022/12/22 10:50:57;;;;;;;71.30;23.87;;;;;;;11.72;46.74;99710.31;4990565;28;20250;-71
2022/12/22 10:53:40;;;;;;;52.03;24.30;;;;;;;11.75;46.28;99710.72;4992371;28;20196;-73
2022/12/22 10:56:08;;;;;;;40.30;23.93;;;;;;;11.84;46.00;99709.53;4992783;28;20633;-69
2022/12/22 10:58:47;;;;;;;40.30;22.80;;;;;;;11.87;45.65;99698.47;4992981;28;20342;-72
2022/12/22 11:01:23;;;;;;;41.23;22.80;;;;;;;11.96;45.05;99697.28;4992387;28;20652;-71
2022/12/22 11:03:51;;;;;;;33.00;23.53;;;;;;;11.99;45.00;99688.06;4992757;28;20192;-70
2022/12/22 11:06:19;;;;;;;39.80;22.87;;;;;;;11.78;45.16;99685.53;4992097;28;20231;-70
2022/12/22 11:08:46;;;;;;;38.03;23.87;;;;;;;11.74;45.76;99673.66;4992056;28;20205;-72
2022/12/22 11:11:19;;;;;;;43.93;23.70;;;;;;;11.71;45.38;99668.75;4991638;28;20830;-71
2022/12/22 11:13:58;;;;;;;38.20;22.53;;;;;;;11.69;45.17;99663.63;4992281;28;20184;-73
2022/12/22 11:16:32;;;;;;;35.10;23.03;;;;;;;11.77;45.65;99662.63;4992563;28;20275;-71
2022/12/22 11:19:15;;;;;;;37.40;21.87;;;;;;;11.74;45.48;99653.19;4992176;28;20206;-71
2022/12/22 11:21:49;;;;;;;40.50;22.50;;;;;;;11.76;45.19;99651.16;4992987;28;20239;-67
2022/12/22 11:24:29;;;;;;;36.07;22.23;;;;;;;11.64;45.40;99644.75;4996468;28;20191;-67
2022/12/22 11:27:06;;;;;;;36.80;21.20;;;;;;;11.40;45.56;99647.91;4996835;28;20187;-69
2022/12/22 11:29:57;;;;;;;34.87;20.53;;;;;;;11.40;46.01;99647.09;4995859;28;20643;-68
2022/12/22 11:32:40;;;;;;;35.87;20.73;;;;;;;11.29;46.01;99639.66;4981266;28;20188;-68
2022/12/22 11:35:16;;;;;;;50.03;21.67;;;;;;;11.23;46.51;99635.94;4996007;28;20192;-69
2022/12/22 11:37:50;;;;;;;41.37;19.13;;;;;;;11.32;46.46;99632.13;4999244;28;20210;-67
2022/12/22 11:40:28;;;;;;;27.87;18.93;;;;;;;11.37;45.38;99642.97;4995815;28;20188;-70
2022/12/22 11:43:13;;;;;;;28.87;19.93;;;;;;;11.39;45.55;99624.97;4999186;28;20191;-71
2022/12/22 11:45:51;;;;;;;30.83;18.43;;;;;;;11.52;45.51;99630.38;4996362;28;20191;-69
2022/12/22 11:48:44;;;;;;;31.07;18.33;;;;;;;11.58;45.56;99629.56;4995324;28;20188;-74
2022/12/22 11:51:25;;;;;;;30.40;18.40;;;;;;;11.59;45.91;99633.84;4995034;28;20192;-71
2022/12/22 11:54:05;;;;;;;34.23;19.17;;;;;;;11.44;45.75;99629.72;4995794;28;20184;-72
2022/12/22 11:56:35;;;;;;;30.03;18.87;;;;;;;10.97;46.41;99625.16;4995468;28;20187;-69
2022/12/22 11:59:21;;;;;;;25.73;17.33;;;;;;;11.04;47.06;99628.69;4995452;28;20221;-70
2022/12/22 12:02:25;;;;;;;39.13;18.90;;;;;;;10.82;47.63;99633.25;4995389;28;20235;-71
2022/12/22 12:05:33;;;;;;;66.27;27.77;;;;;;;10.99;47.82;99625.81;4995433;28;20246;-71
2022/12/22 12:08:08;;;;;;;28.73;16.97;;;;;;;11.14;47.08;99623.84;4994993;28;20265;-68
2022/12/22 12:10:43;;;;;;;23.67;16.93;;;;;;;10.82;47.93;99613.81;4995272;28;20277;-69
2022/12/22 12:13:23;;;;;;;28.33;18.60;;;;;;;10.84;48.96;99614.47;4995103;28;20182;-71
2022/12/22 12:15:55;;;;;;;25.53;19.13;;;;;;;10.72;48.69;99595.59;4995704;28;20184;-70
2022/12/22 12:18:41;;;;;;;27.80;19.07;;;;;;;10.98;49.45;99610.06;4994922;28;20271;-69
2022/12/22 12:21:25;;;;;;;24.77;18.30;;;;;;;11.02;49.68;99599.66;4995185;28;20235;-71
2022/12/22 12:24:20;;;;;;;24.20;18.03;;;;;;;11.10;49.11;99600.50;4994979;28;20664;-69
2022/12/22 12:26:56;;;;;;;37.63;19.57;;;;;;;11.07;49.19;99604.38;4994353;28;20611;-71
2022/12/22 12:29:27;;;;;;;24.50;18.17;;;;;;;11.06;48.85;99600.06;4994002;28;20622;-70
2022/12/22 12:32:00;;;;;;;26.50;18.13;;;;;;;10.95;49.77;99595.31;4994399;28;20249;-69
2022/12/22 12:34:31;;;;;;;28.77;18.80;;;;;;;10.92;49.22;99595.69;4993033;28;20701;-72
2022/12/22 12:37:03;;;;;;;23.90;16.73;;;;;;;10.96;49.95;99594.28;4994628;28;20187;-69
2022/12/22 12:39:39;;;;;;;29.77;18.93;;;;;;;10.98;49.99;99597.56;4993933;28;20589;-70
2022/12/22 12:42:20;;;;;;;24.33;17.30;;;;;;;11.00;49.74;99599.00;4995108;28;20194;-71
2022/12/22 12:44:51;;;;;;;28.77;17.33;;;;;;;10.96;49.55;99594.28;4995738;28;20265;-67
2022/12/22 12:47:23;;;;;;;18.73;13.77;;;;;;;10.92;49.06;99595.69;4994585;28;20221;-69
2022/12/22 12:50:23;;;;;;;24.27;16.53;;;;;;;10.87;49.20;99608.75;4994443;28;20253;-69
2022/12/22 12:53:15;;;;;;;19.27;15.83;;;;;;;10.64;50.32;99600.22;4992942;28;20254;-70
2022/12/22 12:55:58;;;;;;;23.57;16.13;;;;;;;10.31;51.57;99601.78;4994179;28;20596;-69
2022/12/22 12:58:51;;;;;;;24.57;16.37;;;;;;;10.39;51.56;99599.00;4992154;28;20257;-69
2022/12/22 13:01:55;;;;;;;22.00;15.60;;;;;;;10.27;50.97;99592.56;4992269;28;20187;-69
2022/12/22 13:05:12;;;;;;;22.00;16.30;;;;;;;10.26;52.14;99598.91;4973098;28;20205;-68
2022/12/22 13:08:24;;;;;;;20.40;16.23;;;;;;;10.27;52.98;99595.22;4976168;28;20191;-68
2022/12/22 13:11:32;;;;;;;17.80;13.23;;;;;;;10.32;51.22;99606.09;4990313;28;20651;-68
2022/12/22 13:13:59;;;;;;;16.93;11.83;;;;;;;10.23;50.88;99599.28;4991398;28;20258;-69
2022/12/22 13:16:33;;;;;;;17.27;12.57;;;;;;;10.22;50.66;99602.94;4993718;28;20222;-69
2022/12/22 13:19:05;;;;;;;9.30;8.53;;;;;;;10.21;58.08;99588.03;4993646;28;20264;-73
2022/12/22 13:21:41;;;;;;;23.13;16.33;;;;;;;10.71;67.52;99579.84;4991351;28;20245;-70
2022/12/22 13:24:17;;;;;;;26.90;16.23;;;;;;;10.77;54.15;99608.28;4994186;28;20190;-70
2022/12/22 13:26:47;;;;;;;24.67;17.23;;;;;;;10.70;52.90;99608.22;4994758;28;20186;-70
2022/12/22 13:29:23;;;;;;;31.43;19.30;;;;;;;10.57;52.17;99602.81;4994072;28;20637;-70
2022/12/22 13:31:54;;;;;;;37.00;22.40;;;;;;;10.55;53.21;99604.03;4993903;28;20253;-72
2022/12/22 13:34:37;;;;;;;27.17;18.00;;;;;;;10.40;53.75;99605.94;4993851;28;20272;-72
2022/12/22 13:37:13;;;;;;;36.13;19.77;;;;;;;10.37;53.93;99601.00;4993454;28;20282;-69
2022/12/22 13:39:40;;;;;;;32.13;17.73;;;;;;;10.35;53.64;99603.06;4993446;28;20206;-71
2022/12/22 13:42:12;;;;;;;29.43;18.13;;;;;;;10.30;53.85;99600.16;4994541;28;20559;-69
2022/12/22 13:44:40;;;;;;;23.93;17.47;;;;;;;10.22;54.35;99592.34;5013434;28;20186;-71
2022/12/22 13:47:14;;;;;;;26.03;18.07;;;;;;;10.17;54.09;99606.16;5012999;28;20728;-71
2022/12/22 13:49:42;;;;;;;31.83;19.63;;;;;;;10.10;55.07;99599.97;5013325;28;20229;-70
2022/12/22 13:52:16;;;;;;;24.30;17.60;;;;;;;10.08;54.83;99595.84;4996508;28;20198;-69
2022/12/22 13:54:45;;;;;;;26.93;18.73;;;;;;;10.02;55.08;99586.00;4993721;28;20186;-65
2022/12/22 13:57:17;;;;;;;32.20;20.43;;;;;;;9.98;55.93;99590.88;4993675;28;20207;-69
2022/12/22 13:59:45;;;;;;;31.10;20.20;;;;;;;9.94;55.77;99583.47;4993762;28;20290;-69
2022/12/22 14:02:16;;;;;;;33.47;19.57;;;;;;;9.95;55.37;99590.41;4993113;28;20277;-68
2022/12/22 14:04:45;;;;;;;26.87;19.27;;;;;;;9.94;55.89;99578.16;4993512;28;20674;-67
2022/12/22 14:07:13;;;;;;;38.07;21.10;;;;;;;9.93;55.79;99582.63;4993860;28;20194;-70
2022/12/22 14:09:43;;;;;;;42.83;20.23;;;;;;;9.90;56.56;99587.50;4993126;28;20198;-68
2022/12/22 14:12:15;;;;;;;39.47;21.27;;;;;;;9.88;56.40;99584.19;4992675;28;20205;-66
2022/12/22 14:14:44;;;;;;;30.60;21.33;;;;;;;9.86;56.54;99575.63;4993124;28;20191;-67
2022/12/22 14:17:21;;;;;;;47.33;22.20;;;;;;;9.80;56.62;99571.91;4992772;28;20721;-66
2022/12/22 14:19:50;;;;;;;31.23;18.40;;;;;;;9.76;56.89;99572.47;4993208;28;20214;-66
2022/12/22 14:22:20;;;;;;;35.03;19.17;;;;;;;9.74;57.38;99566.53;4992954;28;20195;-66
2022/12/22 14:24:53;;;;;;;33.70;18.27;;;;;;;9.70;57.00;99570.56;4993232;28;20195;-65
2022/12/22 14:27:30;;;;;;;29.07;19.63;;;;;;;9.69;57.48;99576.88;4993683;28;20205;-65
2022/12/22 14:30:01;;;;;;;43.27;21.17;;;;;;;9.64;57.08;99571.31;4993091;28;20190;-65
2022/12/22 14:32:36;;;;;;;38.67;21.87;;;;;;;9.59;57.49;99568.41;4992478;28;20642;-66
2022/12/22 14:35:04;;;;;;;41.13;22.50;;;;;;;9.53;57.67;99582.41;4992395;28;20666;-66
2022/12/22 14:37:30;;;;;;;40.47;19.80;;;;;;;9.33;57.76;99574.25;4992044;28;20745;-66
2022/12/22 14:39:57;;;;;;;34.60;20.73;;;;;;;9.30;58.34;99579.91;4992315;28;20222;-68
2022/12/22 14:42:25;;;;;;;23.93;16.87;;;;;;;9.37;63.50;99570.22;4992335;28;20187;-72
2022/12/22 14:44:52;;;;;;;38.43;23.03;;;;;;;9.52;62.71;99556.91;4992132;28;20197;-68
2022/12/22 14:47:25;;;;;;;39.83;20.87;;;;;;;9.49;60.67;99567.88;4992726;28;20190;-68
2022/12/22 14:49:55;;;;;;;33.80;20.27;;;;;;;9.43;59.89;99574.75;4991913;28;20230;-68
2022/12/22 14:52:31;;;;;;;37.47;20.10;;;;;;;9.36;59.55;99567.75;4992232;28;20190;-68
2022/12/22 14:54:59;;;;;;;38.90;20.37;;;;;;;9.27;59.22;99572.31;4992330;28;20187;-66
2022/12/22 14:57:36;;;;;;;59.43;23.57;;;;;;;9.19;59.08;99564.47;4988851;28;20192;-68
2022/12/22 15:00:07;;;;;;;89.27;26.07;;;;;;;9.12;59.45;99570.72;4992234;28;20210;-66
2022/12/22 15:02:36;;;;;;;77.37;27.17;;;;;;;9.03;60.03;99577.94;4990460;28;20190;-68
2022/12/22 15:05:13;;;;;;;94.83;29.33;;;;;;;8.92;60.81;99575.75;4989316;28;20744;-66
2022/12/22 15:07:48;;;;;;;93.40;32.97;;;;;;;8.77;61.54;99566.97;4992718;28;20241;-68
2022/12/22 15:10:15;;;;;;;103.00;31.00;;;;;;;8.65;62.41;99572.91;4992355;28;20724;-70
2022/12/22 15:12:43;;;;;;;90.60;29.90;;;;;;;8.49;62.73;99573.91;4991678;28;20576;-68
2022/12/22 15:15:16;;;;;;;63.23;28.43;;;;;;;8.40;62.90;99574.97;4991774;28;20253;-63
2022/12/22 15:17:45;;;;;;;114.80;33.03;;;;;;;8.21;63.81;99564.09;4992095;28;20228;-63